Time;durP1;ratioP1;P1;durP2;ratioP2;P2;SDS_P1;SDS_P2;PMS_P1;PMS_P2;Temp;Humidity;BMP_temperature;BMP_pressure;BME280_temperature;BME280_humidity;BME280_pressure;Samples;Min_cycle;Max_cycle;Signal;HPM_P1;HPM_P2
2022/06/17 00:00:42;;;;;;;;;;;16.90;99.90;;;;;;5042852;28;19937;-65
2022/06/17 00:03:09;;;;;;;;;;;16.90;99.90;;;;;;5037663;28;20343;-65
2022/06/17 00:05:36;;;;;;;;;;;16.90;99.90;;;;;;5036788;28;19932;-65
2022/06/17 00:08:05;;;;;;;;;;;16.80;99.90;;;;;;5036308;28;19983;-65
2022/06/17 00:10:32;;;;;;;;;;;16.80;99.90;;;;;;5042784;28;19924;-65
2022/06/17 00:12:59;;;;;;;;;;;16.70;99.90;;;;;;5042995;28;19929;-65
2022/06/17 00:15:26;;;;;;;;;;;16.50;99.90;;;;;;5042083;28;19925;-65
2022/06/17 00:17:53;;;;;;;;;;;16.30;99.90;;;;;;5040910;28;19979;-64
2022/06/17 00:20:22;;;;;;;;;;;16.30;99.90;;;;;;5048232;28;19929;-65
2022/06/17 00:22:49;;;;;;;;;;;16.20;99.90;;;;;;5037895;28;19925;-65
2022/06/17 00:25:20;;;;;;;;;;;16.10;99.90;;;;;;5043407;28;19932;-65
2022/06/17 00:27:47;;;;;;;;;;;16.00;99.90;;;;;;5045144;28;19976;-65
2022/06/17 00:30:15;;;;;;;;;;;16.00;99.90;;;;;;5051044;28;19979;-66
2022/06/17 00:32:42;;;;;;;;;;;16.00;99.90;;;;;;5031698;28;20009;-65
2022/06/17 00:35:09;;;;;;;;;;;15.90;99.90;;;;;;5044474;28;19924;-65
2022/06/17 00:37:36;;;;;;;;;;;15.90;99.90;;;;;;5045447;28;19987;-65
2022/06/17 00:40:07;;;;;;;;;;;15.80;99.90;;;;;;5043636;28;19999;-65
2022/06/17 00:42:35;;;;;;;;;;;15.80;99.90;;;;;;5047402;28;20327;-65
2022/06/17 00:45:04;;;;;;;;;;;15.80;99.90;;;;;;5041663;28;19933;-65
2022/06/17 00:47:34;;;;;;;;;;;15.80;99.90;;;;;;5046900;28;20281;-64
2022/06/17 00:50:04;;;;;;;;;;;15.80;99.90;;;;;;5042392;28;19947;-64
2022/06/17 00:52:40;;;;;;;;;;;15.80;99.90;;;;;;5041593;28;19925;-65
2022/06/17 00:55:13;;;;;;;;;;;15.80;99.90;;;;;;5044764;28;19928;-65
2022/06/17 00:57:42;;;;;;;;;;;15.80;99.90;;;;;;5033688;28;19940;-64
2022/06/17 01:00:17;;;;;;;;;;;15.80;99.90;;;;;;5045725;28;19963;-64
2022/06/17 01:02:46;;;;;;;;;;;15.80;99.90;;;;;;5037295;28;20400;-64
2022/06/17 01:05:15;;;;;;;;;;;15.80;99.90;;;;;;5033840;28;20323;-64
2022/06/17 01:07:44;;;;;;;;;;;15.80;99.90;;;;;;5042282;28;19924;-64
2022/06/17 01:10:13;;;;;;;;;;;15.70;99.90;;;;;;5044606;28;19925;-64
2022/06/17 01:12:43;;;;;;;;;;;15.70;99.90;;;;;;5044811;28;19928;-64
2022/06/17 01:15:12;;;;;;;;;;;15.70;99.90;;;;;;5038783;28;19924;-65
2022/06/17 01:17:40;;;;;;;;;;;15.60;99.90;;;;;;5041664;28;19931;-63
2022/06/17 01:20:10;;;;;;;;;;;15.60;99.90;;;;;;5034296;28;19931;-64
2022/06/17 01:22:40;;;;;;;;;;;15.60;99.90;;;;;;5049475;28;19924;-65
2022/06/17 01:25:08;;;;;;;;;;;15.60;99.90;;;;;;5041967;28;19925;-64
2022/06/17 01:27:37;;;;;;;;;;;15.50;99.90;;;;;;5036009;28;19925;-65
2022/06/17 01:30:04;;;;;;;;;;;15.50;99.90;;;;;;5041796;28;20427;-64
2022/06/17 01:32:36;;;;;;;;;;;15.40;99.90;;;;;;5049328;28;19925;-65
2022/06/17 01:35:03;;;;;;;;;;;15.30;99.90;;;;;;5045094;28;19925;-64
2022/06/17 01:37:31;;;;;;;;;;;15.20;99.90;;;;;;5055476;28;19926;-64
2022/06/17 01:40:01;;;;;;;;;;;15.20;99.90;;;;;;5042387;28;19925;-65
2022/06/17 01:42:28;;;;;;;;;;;15.30;99.90;;;;;;5038065;28;19929;-64
2022/06/17 01:44:55;;;;;;;;;;;15.30;99.90;;;;;;5037508;28;19924;-63
2022/06/17 01:47:26;;;;;;;;;;;15.30;99.90;;;;;;5037594;28;19933;-64
2022/06/17 01:49:55;;;;;;;;;;;15.30;99.90;;;;;;5046905;28;19925;-63
2022/06/17 01:52:24;;;;;;;;;;;15.20;99.90;;;;;;5039270;28;20359;-64
2022/06/17 01:54:56;;;;;;;;;;;15.30;99.90;;;;;;5036379;28;20019;-64
2022/06/17 01:57:28;;;;;;;;;;;15.20;99.90;;;;;;5039727;28;19982;-63
2022/06/17 02:00:00;;;;;;;;;;;15.10;99.90;;;;;;5036327;28;20025;-64
2022/06/17 02:02:42;;;;;;;;;;;15.10;99.90;;;;;;5043455;28;19965;-64
2022/06/17 02:05:10;;;;;;;;;;;15.10;99.90;;;;;;5047381;28;19929;-64
2022/06/17 02:07:40;;;;;;;;;;;15.10;99.90;;;;;;5058565;28;19925;-64
2022/06/17 02:10:07;;;;;;;;;;;15.10;99.90;;;;;;5035372;28;19929;-64
2022/06/17 02:12:36;;;;;;;;;;;15.10;99.90;;;;;;5040117;28;19933;-64
2022/06/17 02:15:09;;;;;;;;;;;15.10;99.90;;;;;;5042074;28;20019;-65
2022/06/17 02:18:06;;;;;;;;;;;15.10;99.90;;;;;;5039733;28;19936;-65
2022/06/17 02:20:55;;;;;;;;;;;15.10;99.90;;;;;;5058051;28;19929;-64
2022/06/17 02:23:23;;;;;;;;;;;15.10;99.90;;;;;;5039251;28;20027;-63
2022/06/17 02:25:53;;;;;;;;;;;15.00;99.90;;;;;;5041617;28;20028;-64
2022/06/17 02:28:22;;;;;;;;;;;15.00;99.90;;;;;;5037233;28;19929;-64
2022/06/17 02:30:50;;;;;;;;;;;14.80;99.90;;;;;;5047487;28;19925;-64
2022/06/17 02:33:17;;;;;;;;;;;14.70;99.90;;;;;;5033124;28;19937;-64
2022/06/17 02:35:47;;;;;;;;;;;14.70;99.90;;;;;;5048591;28;19925;-64
2022/06/17 02:38:16;;;;;;;;;;;14.60;99.90;;;;;;5046005;28;19933;-64
2022/06/17 02:40:45;;;;;;;;;;;14.50;99.90;;;;;;5041289;28;19931;-64
2022/06/17 02:43:13;;;;;;;;;;;14.50;99.90;;;;;;5037187;28;19979;-64
2022/06/17 02:45:44;;;;;;;;;;;14.40;99.90;;;;;;5044791;28;19929;-64
2022/06/17 02:48:15;;;;;;;;;;;14.30;99.90;;;;;;5046296;28;19925;-64
2022/06/17 02:50:42;;;;;;;;;;;14.30;99.90;;;;;;5029375;28;19925;-64
2022/06/17 02:53:09;;;;;;;;;;;14.20;99.90;;;;;;5032539;28;19925;-64
2022/06/17 02:55:37;;;;;;;;;;;14.20;99.90;;;;;;5037790;28;19936;-64
2022/06/17 02:58:07;;;;;;;;;;;14.10;99.90;;;;;;5042690;28;19943;-64
2022/06/17 03:00:36;;;;;;;;;;;14.00;99.90;;;;;;5050338;28;19928;-64
2022/06/17 03:03:05;;;;;;;;;;;14.00;99.90;;;;;;5048569;28;20396;-64
2022/06/17 03:05:35;;;;;;;;;;;13.90;99.90;;;;;;5050742;28;19931;-64
2022/06/17 03:08:06;;;;;;;;;;;13.80;99.90;;;;;;5037063;28;19925;-64
2022/06/17 03:10:36;;;;;;;;;;;13.80;99.90;;;;;;5038528;28;19933;-64
2022/06/17 03:13:05;;;;;;;;;;;13.80;99.90;;;;;;5036845;28;20012;-64
2022/06/17 03:15:33;;;;;;;;;;;13.90;99.90;;;;;;5043248;28;19924;-64
2022/06/17 03:18:00;;;;;;;;;;;13.90;99.90;;;;;;5038950;28;19932;-64
2022/06/17 03:20:30;;;;;;;;;;;13.90;99.90;;;;;;5041437;28;19924;-64
2022/06/17 03:22:59;;;;;;;;;;;13.90;99.90;;;;;;5036558;28;20381;-64
2022/06/17 03:25:29;;;;;;;;;;;14.10;99.90;;;;;;5039726;28;19925;-64
2022/06/17 03:27:59;;;;;;;;;;;14.10;99.90;;;;;;5065528;28;20446;-64
2022/06/17 03:30:27;;;;;;;;;;;14.10;99.90;;;;;;5040352;28;19925;-64
2022/06/17 03:32:58;;;;;;;;;;;14.10;99.90;;;;;;5051634;28;20457;-64
2022/06/17 03:35:28;;;;;;;;;;;14.20;99.90;;;;;;5043258;28;19928;-64
2022/06/17 03:37:58;;;;;;;;;;;14.20;99.90;;;;;;5050480;28;19960;-64
2022/06/17 03:40:28;;;;;;;;;;;14.20;99.90;;;;;;5044227;28;19925;-64
2022/06/17 03:43:01;;;;;;;;;;;14.20;99.90;;;;;;5045472;28;19983;-64
2022/06/17 03:45:33;;;;;;;;;;;14.30;99.90;;;;;;5035721;28;19931;-64
2022/06/17 03:48:02;;;;;;;;;;;14.30;99.90;;;;;;5043265;28;19925;-64
2022/06/17 03:50:33;;;;;;;;;;;14.30;99.90;;;;;;5051225;28;19924;-63
2022/06/17 03:53:04;;;;;;;;;;;14.40;99.90;;;;;;5041653;28;19998;-64
2022/06/17 03:55:31;;;;;;;;;;;14.50;99.90;;;;;;5042973;28;20384;-64
2022/06/17 03:58:00;;;;;;;;;;;14.50;99.90;;;;;;5050607;28;20526;-64
2022/06/17 04:00:39;;;;;;;;;;;14.60;99.90;;;;;;5050523;28;19932;-64
2022/06/17 04:03:09;;;;;;;;;;;14.70;99.90;;;;;;5047630;28;20016;-64
2022/06/17 04:05:37;;;;;;;;;;;14.80;99.90;;;;;;5055594;28;19925;-65
2022/06/17 04:08:05;;;;;;;;;;;14.80;99.90;;;;;;5059875;28;19925;-64
2022/06/17 04:10:32;;;;;;;;;;;14.90;99.90;;;;;;5038301;28;19933;-64
2022/06/17 04:13:02;;;;;;;;;;;15.00;99.90;;;;;;5040873;28;20023;-64
2022/06/17 04:15:41;;;;;;;;;;;15.10;99.90;;;;;;5050904;28;19933;-64
2022/06/17 04:18:09;;;;;;;;;;;15.10;99.90;;;;;;5036214;28;20016;-64
2022/06/17 04:20:39;;;;;;;;;;;15.10;99.90;;;;;;5037316;28;19933;-64
2022/06/17 04:23:11;;;;;;;;;;;15.30;99.90;;;;;;5035683;28;20020;-64
2022/06/17 04:25:59;;;;;;;;;;;15.40;99.90;;;;;;5048113;28;19932;-64
2022/06/17 04:28:28;;;;;;;;;;;15.50;99.90;;;;;;5043627;28;20020;-64
2022/06/17 04:30:57;;;;;;;;;;;15.50;99.90;;;;;;5046455;28;19935;-65
2022/06/17 04:33:26;;;;;;;;;;;15.60;99.90;;;;;;5034286;28;20391;-65
2022/06/17 04:35:58;;;;;;;;;;;15.70;99.90;;;;;;5043366;28;19925;-64
2022/06/17 04:38:26;;;;;;;;;;;15.70;99.90;;;;;;5048039;28;19925;-63
2022/06/17 04:41:03;;;;;;;;;;;15.90;99.90;;;;;;5055978;28;19972;-63
2022/06/17 04:43:47;;;;;;;;;;;15.90;99.90;;;;;;5043287;28;19932;-64
2022/06/17 04:46:19;;;;;;;;;;;16.00;99.90;;;;;;5040667;28;20036;-64
2022/06/17 04:48:48;;;;;;;;;;;16.10;99.90;;;;;;5042096;28;19932;-63
2022/06/17 04:51:15;;;;;;;;;;;16.10;99.90;;;;;;5039147;28;20029;-64
2022/06/17 04:53:46;;;;;;;;;;;16.00;99.90;;;;;;5042734;28;19928;-64
2022/06/17 04:56:34;;;;;;;;;;;16.10;99.90;;;;;;5038938;28;19925;-64
2022/06/17 04:59:29;;;;;;;;;;;16.20;99.90;;;;;;5033427;28;19925;-64
2022/06/17 05:01:56;;;;;;;;;;;16.30;99.90;;;;;;5030136;28;19928;-64
2022/06/17 05:04:40;;;;;;;;;;;16.30;99.90;;;;;;5045221;28;20446;-65
2022/06/17 05:07:08;;;;;;;;;;;16.40;99.90;;;;;;5034706;28;19940;-65
2022/06/17 05:09:42;;;;;;;;;;;16.40;99.90;;;;;;5038735;28;20011;-64
2022/06/17 05:12:12;;;;;;;;;;;16.40;99.90;;;;;;5039523;28;20384;-65
2022/06/17 05:14:42;;;;;;;;;;;16.50;99.90;;;;;;5040879;28;19995;-65
2022/06/17 05:17:09;;;;;;;;;;;16.60;99.90;;;;;;5044452;28;19924;-64
2022/06/17 05:19:36;;;;;;;;;;;16.70;99.90;;;;;;5043361;28;19928;-64
2022/06/17 05:22:05;;;;;;;;;;;16.80;99.90;;;;;;5048727;28;19924;-65
2022/06/17 05:24:32;;;;;;;;;;;16.80;99.90;;;;;;5042345;28;19925;-65
2022/06/17 05:27:01;;;;;;;;;;;17.00;99.90;;;;;;5035518;28;19925;-64
2022/06/17 05:29:28;;;;;;;;;;;17.10;99.90;;;;;;5044025;28;19937;-65
2022/06/17 05:31:59;;;;;;;;;;;17.10;99.90;;;;;;5037978;28;19925;-65
2022/06/17 05:34:36;;;;;;;;;;;17.20;99.90;;;;;;5036443;28;19979;-65
2022/06/17 05:37:03;;;;;;;;;;;17.30;99.90;;;;;;5039668;28;19929;-65
2022/06/17 05:39:32;;;;;;;;;;;17.50;99.90;;;;;;5050811;28;19929;-65
2022/06/17 05:41:59;;;;;;;;;;;17.70;99.90;;;;;;5041090;28;20392;-66
2022/06/17 05:44:27;;;;;;;;;;;17.90;99.90;;;;;;5044903;28;19933;-65
2022/06/17 05:47:06;;;;;;;;;;;18.10;99.90;;;;;;5042497;28;19972;-65
2022/06/17 05:49:52;;;;;;;;;;;18.10;99.90;;;;;;5050608;28;20309;-65
2022/06/17 05:52:47;;;;;;;;;;;18.10;99.90;;;;;;5040294;28;19924;-65
2022/06/17 05:55:34;;;;;;;;;;;18.20;99.90;;;;;;5046785;28;19925;-65
2022/06/17 05:58:01;;;;;;;;;;;18.10;99.90;;;;;;5035524;28;19991;-64
2022/06/17 06:00:30;;;;;;;;;;;18.10;99.90;;;;;;5051869;28;20481;-65
2022/06/17 06:02:58;;;;;;;;;;;18.20;99.90;;;;;;5036034;28;20032;-64
2022/06/17 06:05:29;;;;;;;;;;;18.30;99.90;;;;;;5038438;28;19980;-64
2022/06/17 06:07:57;;;;;;;;;;;18.50;99.90;;;;;;5037841;28;19941;-65
2022/06/17 06:10:24;;;;;;;;;;;18.60;99.90;;;;;;5039005;28;19925;-64
2022/06/17 06:12:54;;;;;;;;;;;18.90;99.90;;;;;;5048694;28;19925;-64
2022/06/17 06:15:24;;;;;;;;;;;19.10;99.90;;;;;;5031265;28;20008;-65
2022/06/17 06:18:12;;;;;;;;;;;19.10;99.90;;;;;;5038685;28;19941;-64
2022/06/17 06:20:39;;;;;;;;;;;19.20;99.90;;;;;;5034773;28;20400;-65
2022/06/17 06:23:05;;;;;;;;;;;19.20;99.90;;;;;;5035337;28;19925;-65
2022/06/17 06:25:32;;;;;;;;;;;19.40;99.90;;;;;;5041678;28;20020;-65
2022/06/17 06:27:59;;;;;;;;;;;19.60;99.90;;;;;;5046865;28;19936;-65
2022/06/17 06:30:29;;;;;;;;;;;19.70;99.90;;;;;;5038373;28;20423;-65
2022/06/17 06:32:57;;;;;;;;;;;19.90;99.90;;;;;;5036834;28;20445;-65
2022/06/17 06:35:28;;;;;;;;;;;20.10;99.90;;;;;;5049442;28;19924;-64
2022/06/17 06:37:55;;;;;;;;;;;20.20;99.90;;;;;;5047697;28;19925;-64
2022/06/17 06:40:22;;;;;;;;;;;20.20;99.90;;;;;;5048260;28;19979;-64
2022/06/17 06:42:50;;;;;;;;;;;20.30;99.90;;;;;;5047716;28;19925;-70
2022/06/17 06:45:36;;;;;;;;;;;20.30;99.90;;;;;;5051506;28;19932;-68
2022/06/17 06:48:07;;;;;;;;;;;20.20;99.90;;;;;;5046614;28;19925;-65
2022/06/17 06:50:36;;;;;;;;;;;20.10;99.90;;;;;;5040327;28;19929;-64
2022/06/17 06:53:03;;;;;;;;;;;20.10;99.90;;;;;;5041587;28;19935;-64
2022/06/17 06:55:30;;;;;;;;;;;20.10;99.90;;;;;;5044447;28;19932;-64
2022/06/17 06:57:58;;;;;;;;;;;20.20;99.90;;;;;;5050750;28;19929;-65
2022/06/17 07:00:26;;;;;;;;;;;20.30;99.90;;;;;;5041913;28;19924;-64
2022/06/17 07:02:53;;;;;;;;;;;20.50;99.90;;;;;;5043140;28;20317;-64
2022/06/17 07:05:20;;;;;;;;;;;20.80;99.90;;;;;;5044264;28;20013;-64
2022/06/17 07:07:48;;;;;;;;;;;21.10;99.90;;;;;;5040242;28;19943;-65
2022/06/17 07:10:17;;;;;;;;;;;21.30;99.90;;;;;;5043583;28;20351;-64
2022/06/17 07:12:44;;;;;;;;;;;21.40;99.90;;;;;;5044406;28;20396;-64
2022/06/17 07:15:11;;;;;;;;;;;21.50;99.90;;;;;;5043901;28;19928;-65
2022/06/17 07:17:38;;;;;;;;;;;21.70;99.90;;;;;;5049277;28;19925;-64
2022/06/17 07:20:06;;;;;;;;;;;21.80;99.90;;;;;;5049185;28;19925;-65
2022/06/17 07:22:35;;;;;;;;;;;21.90;99.90;;;;;;5044528;28;19979;-65
2022/06/17 07:25:03;;;;;;;;;;;22.00;99.90;;;;;;5036604;28;20019;-65
2022/06/17 07:27:30;;;;;;;;;;;22.30;99.90;;;;;;5051714;28;19925;-65
2022/06/17 07:29:57;;;;;;;;;;;22.30;99.90;;;;;;5049647;28;19929;-65
2022/06/17 07:32:24;;;;;;;;;;;22.50;99.90;;;;;;5041319;28;19936;-64
2022/06/17 07:34:50;;;;;;;;;;;22.50;99.90;;;;;;5033795;28;20367;-64
2022/06/17 07:40:04;;;;;;;;;;;22.60;99.90;;;;;;5033596;28;19928;-65
2022/06/17 07:42:38;;;;;;;;;;;22.70;99.90;;;;;;5063172;28;19947;-65
2022/06/17 07:45:10;;;;;;;;;;;22.70;99.90;;;;;;5040679;28;19933;-65
2022/06/17 07:47:37;;;;;;;;;;;22.80;99.90;;;;;;5042335;28;19925;-65
2022/06/17 07:50:05;;;;;;;;;;;22.80;99.90;;;;;;5046226;28;20351;-64
2022/06/17 07:52:32;;;;;;;;;;;22.80;99.90;;;;;;5057480;28;19925;-65
2022/06/17 07:54:59;;;;;;;;;;;22.80;99.90;;;;;;5043051;28;19975;-65
2022/06/17 07:57:25;;;;;;;;;;;22.90;99.90;;;;;;5042122;28;20339;-65
2022/06/17 07:59:54;;;;;;;;;;;23.00;99.90;;;;;;5043486;28;20374;-65
2022/06/17 08:02:20;;;;;;;;;;;23.10;99.90;;;;;;5044834;28;19924;-65
2022/06/17 08:04:47;;;;;;;;;;;23.10;99.90;;;;;;5041212;28;20289;-65
2022/06/17 08:07:14;;;;;;;;;;;23.10;99.90;;;;;;5040664;28;19925;-64
2022/06/17 08:09:41;;;;;;;;;;;23.10;99.90;;;;;;5048916;28;20429;-65
2022/06/17 08:12:11;;;;;;;;;;;23.10;99.90;;;;;;5047498;28;20420;-64
2022/06/17 08:14:43;;;;;;;;;;;23.20;99.90;;;;;;5042249;28;19935;-65
2022/06/17 08:17:13;;;;;;;;;;;23.30;99.90;;;;;;5048932;28;20457;-65
2022/06/17 08:19:40;;;;;;;;;;;23.40;99.90;;;;;;5038625;28;19926;-65
2022/06/17 08:22:07;;;;;;;;;;;23.40;99.90;;;;;;5041263;28;19974;-65
2022/06/17 08:24:33;;;;;;;;;;;23.50;99.90;;;;;;5050679;28;20396;-65
2022/06/17 08:27:00;;;;;;;;;;;23.50;99.90;;;;;;5043198;28;20349;-65
2022/06/17 08:29:28;;;;;;;;;;;23.60;99.90;;;;;;5038087;28;19924;-66
2022/06/17 08:31:55;;;;;;;;;;;23.60;99.90;;;;;;5050978;28;19924;-66
2022/06/17 08:34:23;;;;;;;;;;;23.70;99.90;;;;;;5038079;28;19925;-66
2022/06/17 08:36:52;;;;;;;;;;;23.70;99.90;;;;;;5032165;28;20388;-66
2022/06/17 08:39:18;;;;;;;;;;;23.70;99.90;;;;;;5056424;28;19933;-66
2022/06/17 08:41:50;;;;;;;;;;;23.80;99.90;;;;;;5038494;28;19975;-66
2022/06/17 08:44:29;;;;;;;;;;;23.90;99.90;;;;;;5038014;28;19931;-66
2022/06/17 08:47:13;;;;;;;;;;;24.10;99.90;;;;;;5045753;28;19924;-65
2022/06/17 08:49:50;;;;;;;;;;;24.00;99.90;;;;;;5055071;28;19995;-66
2022/06/17 08:52:23;;;;;;;;;;;24.00;99.90;;;;;;5039252;28;20003;-66
2022/06/17 08:54:56;;;;;;;;;;;24.00;99.90;;;;;;5043634;28;19926;-65
2022/06/17 08:57:28;;;;;;;;;;;23.90;99.90;;;;;;5047730;28;19940;-65
2022/06/17 09:00:04;;;;;;;;;;;23.80;99.90;;;;;;5035015;28;20366;-65
2022/06/17 09:02:37;;;;;;;;;;;23.80;99.90;;;;;;5046780;28;19929;-65
2022/06/17 09:05:13;;;;;;;;;;;23.90;99.90;;;;;;5046338;28;19975;-66
2022/06/17 09:07:47;;;;;;;;;;;24.10;99.90;;;;;;5048978;28;20400;-66
2022/06/17 09:10:27;;;;;;;;;;;24.40;99.90;;;;;;5048827;28;19979;-66
2022/06/17 09:13:00;;;;;;;;;;;24.40;99.90;;;;;;5043694;28;19929;-66
2022/06/17 09:15:32;;;;;;;;;;;24.50;99.90;;;;;;5041181;28;19925;-65
2022/06/17 09:18:02;;;;;;;;;;;24.60;99.90;;;;;;5041527;28;20027;-65
2022/06/17 09:20:33;;;;;;;;;;;24.70;99.90;;;;;;5042766;28;19967;-65
2022/06/17 09:23:02;;;;;;;;;;;24.90;99.90;;;;;;5041233;28;19929;-65
2022/06/17 09:25:32;;;;;;;;;;;24.90;99.90;;;;;;5041837;28;20342;-67
2022/06/17 09:27:59;;;;;;;;;;;25.00;99.90;;;;;;5047204;28;19975;-65
2022/06/17 09:30:31;;;;;;;;;;;25.10;99.90;;;;;;5043561;28;20328;-65
2022/06/17 09:33:03;;;;;;;;;;;25.20;99.90;;;;;;5049462;28;19929;-64
2022/06/17 09:35:35;;;;;;;;;;;25.30;99.90;;;;;;5040649;28;19925;-64
2022/06/17 09:38:06;;;;;;;;;;;25.30;99.90;;;;;;5050279;28;20009;-65
2022/06/17 09:40:35;;;;;;;;;;;25.40;99.90;;;;;;5050398;22;19920;-66
2022/06/17 09:43:05;;;;;;;;;;;25.50;99.90;;;;;;5042059;28;19933;-65
2022/06/17 09:45:33;;;;;;;;;;;25.60;99.90;;;;;;5060246;28;20031;-66
2022/06/17 09:48:03;;;;;;;;;;;25.40;99.90;;;;;;5055116;28;20039;-65
2022/06/17 09:50:33;;;;;;;;;;;25.50;99.90;;;;;;5065507;28;20466;-66
2022/06/17 09:53:03;;;;;;;;;;;25.60;99.90;;;;;;5043290;28;20020;-65
2022/06/17 09:55:33;;;;;;;;;;;25.70;99.90;;;;;;5042588;28;19929;-65
2022/06/17 09:58:01;;;;;;;;;;;25.90;99.90;;;;;;5030199;28;20015;-65
2022/06/17 10:00:31;;;;;;;;;;;25.90;99.90;;;;;;5030372;28;20023;-66
2022/06/17 10:03:05;;;;;;;;;;;26.10;99.90;;;;;;5045603;28;19929;-65
2022/06/17 10:05:37;;;;;;;;;;;26.20;99.90;;;;;;5031777;28;20459;-65
2022/06/17 10:08:08;;;;;;;;;;;26.30;99.90;;;;;;5030855;28;20397;-66
2022/06/17 10:10:42;;;;;;;;;;;26.50;99.90;;;;;;5024858;28;19995;-65
2022/06/17 10:13:15;;;;;;;;;;;26.40;99.90;;;;;;5031500;28;19959;-65
2022/06/17 10:18:31;;;;;;;;;;;26.30;99.90;;;;;;5041915;28;19991;-66
2022/06/17 10:18:38;;;;;;;;;;;26.30;99.90;;;;;;5025259;28;20407;-65
2022/06/17 10:21:17;;;;;;;;;;;26.50;99.90;;;;;;5037899;28;19921;-65
2022/06/17 10:23:49;;;;;;;;;;;26.70;99.90;;;;;;5030227;28;19976;-65
2022/06/17 10:26:22;;;;;;;;;;;27.00;99.90;;;;;;5030407;28;19971;-64
2022/06/17 10:28:59;;;;;;;;;;;27.10;99.90;;;;;;5030669;28;19980;-64
2022/06/17 10:31:30;;;;;;;;;;;27.20;99.90;;;;;;5040594;28;19925;-65
2022/06/17 10:33:57;;;;;;;;;;;27.30;99.90;;;;;;5033781;28;19932;-65
2022/06/17 10:36:25;;;;;;;;;;;27.50;99.90;;;;;;5031173;28;19972;-66
2022/06/17 10:38:52;;;;;;;;;;;27.60;99.90;;;;;;5030168;28;19925;-66
2022/06/17 10:41:19;;;;;;;;;;;27.60;99.90;;;;;;5030129;28;19971;-66
2022/06/17 10:43:48;;;;;;;;;;;27.70;99.90;;;;;;5041613;28;19956;-67
2022/06/17 10:46:16;;;;;;;;;;;27.80;99.90;;;;;;5031796;28;19925;-66
2022/06/17 10:48:45;;;;;;;;;;;27.80;99.90;;;;;;5037224;28;19980;-66
2022/06/17 10:51:11;;;;;;;;;;;27.90;99.90;;;;;;5028991;28;19932;-65
2022/06/17 10:53:42;;;;;;;;;;;27.80;99.90;;;;;;5027606;28;19965;-67
2022/06/17 10:56:13;;;;;;;;;;;28.00;99.90;;;;;;5031185;28;19925;-64
2022/06/17 10:58:54;;;;;;;;;;;27.90;99.90;;;;;;5030929;28;19926;-66
2022/06/17 11:01:21;;;;;;;;;;;27.90;99.90;;;;;;5035516;28;20455;-66
2022/06/17 11:03:50;;;;;;;;;;;28.00;99.90;;;;;;5032839;28;19928;-66
2022/06/17 11:06:18;;;;;;;;;;;28.30;99.90;;;;;;5029581;28;19932;-66
2022/06/17 11:08:54;;;;;;;;;;;28.60;99.90;;;;;;5030327;28;19994;-64
2022/06/17 11:14:17;;;;;;;;;;;28.80;99.90;;;;;;5031349;28;19948;-66
2022/06/17 11:16:44;;;;;;;;;;;29.20;99.90;;;;;;5045964;28;19925;-66
2022/06/17 11:19:13;;;;;;;;;;;29.40;99.90;;;;;;5035411;28;19925;-65
2022/06/17 11:21:44;;;;;;;;;;;29.80;99.90;;;;;;5045002;28;20351;-66
2022/06/17 11:24:19;;;;;;;;;;;30.00;99.90;;;;;;5046399;28;19979;-64
2022/06/17 11:26:59;;;;;;;;;;;30.10;99.90;;;;;;5033594;28;19928;-66
2022/06/17 11:29:34;;;;;;;;;;;30.30;99.90;;;;;;5045425;28;19929;-65
2022/06/17 11:32:12;;;;;;;;;;;30.60;99.90;;;;;;5033853;28;19964;-66
2022/06/17 11:34:46;;;;;;;;;;;30.60;99.90;;;;;;5029776;28;20356;-66
2022/06/17 11:37:15;;;;;;;;;;;30.40;99.90;;;;;;5041015;28;19929;-65
2022/06/17 11:39:44;;;;;;;;;;;30.90;99.90;;;;;;5047532;28;19928;-66
2022/06/17 11:42:15;;;;;;;;;;;31.60;99.90;;;;;;5032600;28;20351;-66
2022/06/17 11:44:49;;;;;;;;;;;32.20;99.90;;;;;;5025533;28;19933;-65
2022/06/17 11:47:19;;;;;;;;;;;33.30;99.90;;;;;;5028641;28;19975;-65
2022/06/17 11:49:46;;;;;;;;;;;34.10;99.90;;;;;;5024292;28;19925;-72
2022/06/17 11:52:22;;;;;;;;;;;34.80;99.90;;;;;;5026438;28;19935;-66
2022/06/17 11:54:52;;;;;;;;;;;35.80;99.90;;;;;;5044795;28;19925;-66
2022/06/17 11:57:21;;;;;;;;;;;36.40;99.90;;;;;;5035728;28;19936;-66
2022/06/17 11:59:49;;;;;;;;;;;36.90;99.90;;;;;;5030921;28;19995;-66
2022/06/17 12:02:16;;;;;;;;;;;37.10;99.90;;;;;;5034893;28;20018;-68
2022/06/17 12:04:45;;;;;;;;;;;36.90;99.90;;;;;;5032265;28;19975;-64
2022/06/17 12:07:31;;;;;;;;;;;37.20;99.90;;;;;;5043349;28;19979;-64
2022/06/17 12:10:03;;;;;;;;;;;38.20;99.90;;;;;;5044413;28;19935;-64
2022/06/17 12:12:30;;;;;;;;;;;38.90;99.90;;;;;;5040821;28;19956;-64
2022/06/17 12:14:59;;;;;;;;;;;38.50;99.30;;;;;;5038639;28;19929;-64
2022/06/17 12:17:26;;;;;;;;;;;37.80;99.00;;;;;;5033522;28;20400;-65
2022/06/17 12:19:53;;;;;;;;;;;37.60;99.20;;;;;;5043478;28;19924;-64
2022/06/17 12:22:23;;;;;;;;;;;38.10;99.30;;;;;;5032366;28;19980;-64
2022/06/17 12:24:53;;;;;;;;;;;38.10;98.60;;;;;;5033867;28;19925;-65
2022/06/17 12:27:24;;;;;;;;;;;38.60;98.50;;;;;;5032766;28;19994;-66
2022/06/17 12:29:55;;;;;;;;;;;37.40;97.80;;;;;;5032698;28;20353;-64
2022/06/17 12:32:26;;;;;;;;;;;37.80;98.00;;;;;;5031129;28;19925;-65
2022/06/17 12:34:56;;;;;;;;;;;38.60;97.70;;;;;;5032053;28;19959;-64
2022/06/17 12:37:28;;;;;;;;;;;38.90;96.60;;;;;;5025892;28;20404;-64
2022/06/17 12:39:58;;;;;;;;;;;38.90;95.70;;;;;;5027820;28;20056;-64
2022/06/17 12:42:30;;;;;;;;;;;38.90;95.80;;;;;;5030256;28;19928;-65
2022/06/17 12:45:02;;;;;;;;;;;39.70;95.80;;;;;;5018077;28;19980;-64
2022/06/17 12:47:34;;;;;;;;;;;39.20;94.60;;;;;;5031961;28;19936;-64
2022/06/17 12:55:40;;;;;;;;;;;40.90;94.60;;;;;;5036764;28;19921;-65
2022/06/17 12:58:12;;;;;;;;;;;41.60;94.00;;;;;;5037710;28;19925;-65
2022/06/17 13:00:41;;;;;;;;;;;41.50;93.80;;;;;;5027543;28;20446;-64
2022/06/17 13:03:21;;;;;;;;;;;41.40;93.80;;;;;;5036783;28;19929;-65
2022/06/17 13:05:49;;;;;;;;;;;41.70;93.70;;;;;;5043022;28;20134;-67
2022/06/17 13:08:21;;;;;;;;;;;42.00;93.30;;;;;;5037475;28;19924;-67
2022/06/17 13:10:53;;;;;;;;;;;42.00;92.90;;;;;;5047032;28;19960;-64
2022/06/17 13:13:40;;;;;;;;;;;39.80;91.30;;;;;;5040951;28;19979;-64
2022/06/17 13:16:10;;;;;;;;;;;39.20;91.10;;;;;;5026089;28;19978;-64
2022/06/17 13:18:40;;;;;;;;;;;38.50;90.20;;;;;;5025425;28;19979;-64
2022/06/17 13:21:08;;;;;;;;;;;39.80;90.60;;;;;;5033067;28;19928;-64
2022/06/17 13:23:39;;;;;;;;;;;40.40;91.40;;;;;;5041155;28;19933;-64
2022/06/17 13:26:08;;;;;;;;;;;40.30;92.10;;;;;;5039455;28;19971;-64
2022/06/17 13:28:42;;;;;;;;;;;39.50;91.60;;;;;;5024018;28;20393;-66
2022/06/17 13:31:13;;;;;;;;;;;39.10;91.60;;;;;;5043713;28;19932;-63
2022/06/17 13:33:48;;;;;;;;;;;40.00;92.10;;;;;;5021673;28;20132;-64
2022/06/17 13:36:16;;;;;;;;;;;40.30;92.40;;;;;;5034405;28;19929;-64
2022/06/17 13:38:46;;;;;;;;;;;40.50;91.70;;;;;;5035700;28;19994;-64
2022/06/17 13:41:16;;;;;;;;;;;39.70;90.90;;;;;;5036720;28;20354;-64
2022/06/17 13:43:44;;;;;;;;;;;39.40;90.90;;;;;;5027287;28;20388;-64
2022/06/17 13:46:14;;;;;;;;;;;38.80;90.90;;;;;;5033310;28;20474;-65
2022/06/17 13:48:44;;;;;;;;;;;38.80;90.80;;;;;;5034223;28;19932;-64
2022/06/17 13:51:16;;;;;;;;;;;38.90;90.80;;;;;;5031384;28;19925;-65
2022/06/17 13:53:57;;;;;;;;;;;39.00;91.20;;;;;;5031759;28;20383;-63
2022/06/17 13:56:28;;;;;;;;;;;38.20;91.30;;;;;;5031402;28;19982;-63
2022/06/17 13:58:57;;;;;;;;;;;37.90;91.90;;;;;;5039961;28;20458;-64
2022/06/17 14:01:35;;;;;;;;;;;36.60;91.60;;;;;;5026666;28;19960;-65
2022/06/17 14:04:16;;;;;;;;;;;35.90;91.60;;;;;;5035928;28;20396;-64
2022/06/17 14:07:03;;;;;;;;;;;35.90;92.60;;;;;;5036879;28;19929;-64
2022/06/17 14:09:31;;;;;;;;;;;36.20;92.80;;;;;;5037943;28;19925;-63
2022/06/17 14:11:58;;;;;;;;;;;36.00;91.80;;;;;;5030190;28;19929;-64
2022/06/17 14:14:50;;;;;;;;;;;35.70;91.10;;;;;;5031175;28;19925;-63
2022/06/17 14:17:20;;;;;;;;;;;35.70;91.50;;;;;;5031137;28;19925;-64
2022/06/17 14:19:49;;;;;;;;;;;35.70;92.00;;;;;;5030194;28;19975;-64
2022/06/17 14:22:18;;;;;;;;;;;36.20;91.80;;;;;;5031163;28;19971;-66
2022/06/17 14:25:15;;;;;;;;;;;36.70;92.20;;;;;;5030282;28;19991;-63
2022/06/17 14:28:00;;;;;;;;;;;36.90;92.50;;;;;;5029030;28;20385;-63
2022/06/17 14:30:36;;;;;;;;;;;37.10;92.80;;;;;;5038196;28;19925;-64
2022/06/17 14:33:04;;;;;;;;;;;37.30;92.70;;;;;;5037725;28;20383;-65
2022/06/17 14:35:32;;;;;;;;;;;37.90;92.50;;;;;;5037765;28;20373;-64
2022/06/17 14:38:12;;;;;;;;;;;37.60;91.90;;;;;;5039377;28;19936;-64
2022/06/17 14:43:23;;;;;;;;;;;37.10;91.90;;;;;;5033491;28;19921;-64
2022/06/17 14:45:52;;;;;;;;;;;36.70;91.60;;;;;;5021056;28;19972;-64
2022/06/17 14:48:27;;;;;;;;;;;36.60;91.50;;;;;;5034931;28;20012;-64
2022/06/17 14:50:55;;;;;;;;;;;37.00;92.20;;;;;;5025312;28;20382;-65